sensor_id;sensor_type;location;lat;lon;timestamp;P1;durP1;ratioP1;P2;durP2;ratioP2
34098;SDS011;20374;49.474;10.944;2022-08-21T00:00:32;5.78;;;5.28;;
34098;SDS011;20374;49.474;10.944;2022-08-21T00:03:00;5.22;;;4.78;;
34098;SDS011;20374;49.474;10.944;2022-08-21T00:05:29;5.47;;;4.97;;
34098;SDS011;20374;49.474;10.944;2022-08-21T00:07:57;6.23;;;5.13;;
34098;SDS011;20374;49.474;10.944;2022-08-21T00:10:23;6.15;;;4.72;;
34098;SDS011;20374;49.474;10.944;2022-08-21T00:12:49;5.75;;;5.30;;
34098;SDS011;20374;49.474;10.944;2022-08-21T00:15:17;7.50;;;5.20;;
34098;SDS011;20374;49.474;10.944;2022-08-21T00:17:46;5.45;;;4.95;;
34098;SDS011;20374;49.474;10.944;2022-08-21T00:20:14;4.70;;;4.30;;
34098;SDS011;20374;49.474;10.944;2022-08-21T00:22:40;5.78;;;4.68;;
34098;SDS011;20374;49.474;10.944;2022-08-21T00:25:08;5.43;;;4.93;;
34098;SDS011;20374;49.474;10.944;2022-08-21T00:27:35;4.95;;;4.45;;
34098;SDS011;20374;49.474;10.944;2022-08-21T00:30:01;5.65;;;5.10;;
34098;SDS011;20374;49.474;10.944;2022-08-21T00:32:29;6.60;;;5.32;;
34098;SDS011;20374;49.474;10.944;2022-08-21T00:34:55;5.72;;;5.07;;
34098;SDS011;20374;49.474;10.944;2022-08-21T00:37:21;6.65;;;6.05;;
34098;SDS011;20374;49.474;10.944;2022-08-21T00:39:48;5.72;;;5.22;;
34098;SDS011;20374;49.474;10.944;2022-08-21T00:42:14;5.97;;;5.47;;
34098;SDS011;20374;49.474;10.944;2022-08-21T00:44:43;5.10;;;4.60;;
34098;SDS011;20374;49.474;10.944;2022-08-21T00:47:10;5.88;;;5.07;;
34098;SDS011;20374;49.474;10.944;2022-08-21T00:49:37;5.25;;;4.82;;
34098;SDS011;20374;49.474;10.944;2022-08-21T00:52:04;5.47;;;4.97;;
34098;SDS011;20374;49.474;10.944;2022-08-21T00:54:33;5.93;;;4.47;;
34098;SDS011;20374;49.474;10.944;2022-08-21T00:57:01;5.70;;;5.13;;
34098;SDS011;20374;49.474;10.944;2022-08-21T00:59:35;6.53;;;5.82;;
34098;SDS011;20374;49.474;10.944;2022-08-21T01:02:05;6.45;;;5.60;;
34098;SDS011;20374;49.474;10.944;2022-08-21T01:04:32;6.97;;;5.70;;
34098;SDS011;20374;49.474;10.944;2022-08-21T01:06:58;6.83;;;5.93;;
34098;SDS011;20374;49.474;10.944;2022-08-21T01:09:25;6.05;;;5.45;;
34098;SDS011;20374;49.474;10.944;2022-08-21T01:11:52;5.90;;;5.40;;
34098;SDS011;20374;49.474;10.944;2022-08-21T01:14:18;7.35;;;5.25;;
34098;SDS011;20374;49.474;10.944;2022-08-21T01:16:46;6.97;;;5.72;;
34098;SDS011;20374;49.474;10.944;2022-08-21T01:19:15;6.73;;;6.13;;
34098;SDS011;20374;49.474;10.944;2022-08-21T01:21:45;6.05;;;5.45;;
34098;SDS011;20374;49.474;10.944;2022-08-21T01:24:12;6.40;;;5.90;;
34098;SDS011;20374;49.474;10.944;2022-08-21T01:26:38;6.95;;;6.35;;
34098;SDS011;20374;49.474;10.944;2022-08-21T01:32:06;6.40;;;5.80;;
34098;SDS011;20374;49.474;10.944;2022-08-21T01:34:38;6.65;;;6.05;;
34098;SDS011;20374;49.474;10.944;2022-08-21T01:37:06;6.60;;;6.00;;
34098;SDS011;20374;49.474;10.944;2022-08-21T01:39:32;6.63;;;5.97;;
34098;SDS011;20374;49.474;10.944;2022-08-21T01:41:59;9.23;;;6.05;;
34098;SDS011;20374;49.474;10.944;2022-08-21T01:44:26;7.63;;;5.57;;
34098;SDS011;20374;49.474;10.944;2022-08-21T01:46:54;8.02;;;5.78;;
34098;SDS011;20374;49.474;10.944;2022-08-21T01:49:20;6.30;;;5.70;;
34098;SDS011;20374;49.474;10.944;2022-08-21T01:51:46;5.65;;;5.05;;
34098;SDS011;20374;49.474;10.944;2022-08-21T01:54:12;5.95;;;5.35;;
34098;SDS011;20374;49.474;10.944;2022-08-21T01:56:39;6.73;;;6.13;;
34098;SDS011;20374;49.474;10.944;2022-08-21T01:59:07;6.68;;;5.97;;
34098;SDS011;20374;49.474;10.944;2022-08-21T02:01:34;5.53;;;4.95;;
34098;SDS011;20374;49.474;10.944;2022-08-21T02:04:00;9.85;;;6.35;;
34098;SDS011;20374;49.474;10.944;2022-08-21T02:06:26;7.82;;;6.32;;
34098;SDS011;20374;49.474;10.944;2022-08-21T02:08:52;9.05;;;6.97;;
34098;SDS011;20374;49.474;10.944;2022-08-21T02:11:18;7.57;;;6.20;;
34098;SDS011;20374;49.474;10.944;2022-08-21T02:13:44;8.48;;;7.38;;
34098;SDS011;20374;49.474;10.944;2022-08-21T02:16:11;8.48;;;6.82;;
34098;SDS011;20374;49.474;10.944;2022-08-21T02:18:38;8.43;;;6.50;;
34098;SDS011;20374;49.474;10.944;2022-08-21T02:21:04;7.93;;;7.10;;
34098;SDS011;20374;49.474;10.944;2022-08-21T02:23:31;11.30;;;7.47;;
34098;SDS011;20374;49.474;10.944;2022-08-21T02:25:58;22.95;;;9.10;;
34098;SDS011;20374;49.474;10.944;2022-08-21T02:28:29;9.13;;;7.13;;
34098;SDS011;20374;49.474;10.944;2022-08-21T02:30:55;11.17;;;7.17;;
34098;SDS011;20374;49.474;10.944;2022-08-21T02:33:22;14.30;;;7.47;;
34098;SDS011;20374;49.474;10.944;2022-08-21T02:35:48;13.10;;;8.63;;
34098;SDS011;20374;49.474;10.944;2022-08-21T02:38:19;11.20;;;7.75;;
34098;SDS011;20374;49.474;10.944;2022-08-21T02:40:49;18.50;;;9.20;;
34098;SDS011;20374;49.474;10.944;2022-08-21T02:43:17;44.67;;;10.67;;
34098;SDS011;20374;49.474;10.944;2022-08-21T02:45:44;25.67;;;8.43;;
34098;SDS011;20374;49.474;10.944;2022-08-21T02:48:12;11.93;;;7.53;;
34098;SDS011;20374;49.474;10.944;2022-08-21T02:50:45;7.70;;;6.90;;
34098;SDS011;20374;49.474;10.944;2022-08-21T02:53:19;18.42;;;10.23;;
34098;SDS011;20374;49.474;10.944;2022-08-21T02:55:46;31.60;;;9.17;;
34098;SDS011;20374;49.474;10.944;2022-08-21T02:58:14;17.92;;;7.88;;
34098;SDS011;20374;49.474;10.944;2022-08-21T03:00:42;16.58;;;7.85;;
34098;SDS011;20374;49.474;10.944;2022-08-21T03:03:09;31.50;;;10.02;;
34098;SDS011;20374;49.474;10.944;2022-08-21T03:05:35;76.57;;;22.63;;
34098;SDS011;20374;49.474;10.944;2022-08-21T03:08:07;26.37;;;10.40;;
34098;SDS011;20374;49.474;10.944;2022-08-21T03:10:36;52.63;;;18.52;;
34098;SDS011;20374;49.474;10.944;2022-08-21T03:13:03;42.30;;;13.50;;
34098;SDS011;20374;49.474;10.944;2022-08-21T03:15:29;68.03;;;18.92;;
34098;SDS011;20374;49.474;10.944;2022-08-21T03:17:55;34.40;;;10.90;;
34098;SDS011;20374;49.474;10.944;2022-08-21T03:20:23;42.80;;;13.10;;
34098;SDS011;20374;49.474;10.944;2022-08-21T03:22:51;54.58;;;22.67;;
34098;SDS011;20374;49.474;10.944;2022-08-21T03:25:19;37.38;;;16.63;;
34098;SDS011;20374;49.474;10.944;2022-08-21T03:27:49;83.85;;;20.88;;
34098;SDS011;20374;49.474;10.944;2022-08-21T03:30:15;84.23;;;21.60;;
34098;SDS011;20374;49.474;10.944;2022-08-21T03:32:42;69.32;;;19.85;;
34098;SDS011;20374;49.474;10.944;2022-08-21T03:35:08;47.83;;;15.85;;
34098;SDS011;20374;49.474;10.944;2022-08-21T03:37:35;35.20;;;12.63;;
34098;SDS011;20374;49.474;10.944;2022-08-21T03:40:03;37.92;;;11.98;;
34098;SDS011;20374;49.474;10.944;2022-08-21T03:42:30;32.75;;;9.95;;
34098;SDS011;20374;49.474;10.944;2022-08-21T03:44:56;57.20;;;13.52;;
34098;SDS011;20374;49.474;10.944;2022-08-21T03:47:22;35.10;;;13.88;;
34098;SDS011;20374;49.474;10.944;2022-08-21T03:49:48;47.53;;;12.67;;
34098;SDS011;20374;49.474;10.944;2022-08-21T03:52:14;67.88;;;16.20;;
34098;SDS011;20374;49.474;10.944;2022-08-21T03:54:41;31.65;;;10.95;;
34098;SDS011;20374;49.474;10.944;2022-08-21T03:57:07;37.90;;;10.68;;
34098;SDS011;20374;49.474;10.944;2022-08-21T03:59:34;39.10;;;10.40;;
34098;SDS011;20374;49.474;10.944;2022-08-21T04:02:01;17.67;;;8.77;;
34098;SDS011;20374;49.474;10.944;2022-08-21T04:04:28;14.20;;;7.30;;
34098;SDS011;20374;49.474;10.944;2022-08-21T04:06:55;39.70;;;14.82;;
34098;SDS011;20374;49.474;10.944;2022-08-21T04:09:22;19.23;;;9.75;;
34098;SDS011;20374;49.474;10.944;2022-08-21T04:11:49;10.48;;;7.90;;
34098;SDS011;20374;49.474;10.944;2022-08-21T04:14:15;11.33;;;7.40;;
34098;SDS011;20374;49.474;10.944;2022-08-21T04:16:42;21.98;;;10.07;;
34098;SDS011;20374;49.474;10.944;2022-08-21T04:19:09;51.63;;;15.57;;
34098;SDS011;20374;49.474;10.944;2022-08-21T04:21:36;24.73;;;10.35;;
34098;SDS011;20374;49.474;10.944;2022-08-21T04:24:03;56.38;;;19.75;;
34098;SDS011;20374;49.474;10.944;2022-08-21T04:26:30;42.23;;;11.30;;
34098;SDS011;20374;49.474;10.944;2022-08-21T04:28:57;50.70;;;15.73;;
34098;SDS011;20374;49.474;10.944;2022-08-21T04:31:23;20.55;;;10.23;;
34098;SDS011;20374;49.474;10.944;2022-08-21T04:33:50;100.40;;;18.73;;
34098;SDS011;20374;49.474;10.944;2022-08-21T04:36:17;69.70;;;16.77;;
34098;SDS011;20374;49.474;10.944;2022-08-21T04:38:43;93.33;;;25.57;;
34098;SDS011;20374;49.474;10.944;2022-08-21T04:41:09;18.75;;;10.10;;
34098;SDS011;20374;49.474;10.944;2022-08-21T04:43:35;29.73;;;10.02;;
34098;SDS011;20374;49.474;10.944;2022-08-21T04:46:01;26.65;;;9.30;;
34098;SDS011;20374;49.474;10.944;2022-08-21T04:48:27;26.45;;;10.18;;
34098;SDS011;20374;49.474;10.944;2022-08-21T04:53:53;47.30;;;14.30;;
34098;SDS011;20374;49.474;10.944;2022-08-21T04:58:52;19.92;;;9.85;;
34098;SDS011;20374;49.474;10.944;2022-08-21T05:01:20;61.13;;;18.90;;
34098;SDS011;20374;49.474;10.944;2022-08-21T05:03:49;57.28;;;21.10;;
34098;SDS011;20374;49.474;10.944;2022-08-21T05:06:20;47.85;;;16.70;;
34098;SDS011;20374;49.474;10.944;2022-08-21T05:08:48;31.33;;;8.25;;
34098;SDS011;20374;49.474;10.944;2022-08-21T05:11:15;29.13;;;9.20;;
34098;SDS011;20374;49.474;10.944;2022-08-21T05:13:41;23.23;;;12.37;;
34098;SDS011;20374;49.474;10.944;2022-08-21T05:16:08;46.22;;;13.48;;
34098;SDS011;20374;49.474;10.944;2022-08-21T05:18:34;56.92;;;13.32;;
34098;SDS011;20374;49.474;10.944;2022-08-21T05:21:00;46.15;;;15.45;;
34098;SDS011;20374;49.474;10.944;2022-08-21T05:23:26;51.73;;;13.07;;
34098;SDS011;20374;49.474;10.944;2022-08-21T05:25:52;44.85;;;14.93;;
34098;SDS011;20374;49.474;10.944;2022-08-21T05:28:18;20.02;;;9.48;;
34098;SDS011;20374;49.474;10.944;2022-08-21T05:30:45;21.80;;;9.02;;
34098;SDS011;20374;49.474;10.944;2022-08-21T05:33:11;25.50;;;8.60;;
34098;SDS011;20374;49.474;10.944;2022-08-21T05:35:37;21.53;;;10.70;;
34098;SDS011;20374;49.474;10.944;2022-08-21T05:38:04;31.33;;;12.55;;
34098;SDS011;20374;49.474;10.944;2022-08-21T05:40:31;22.75;;;9.52;;
34098;SDS011;20374;49.474;10.944;2022-08-21T05:42:57;12.20;;;7.95;;
34098;SDS011;20374;49.474;10.944;2022-08-21T05:45:28;22.90;;;11.27;;
34098;SDS011;20374;49.474;10.944;2022-08-21T05:47:56;31.08;;;13.18;;
34098;SDS011;20374;49.474;10.944;2022-08-21T05:50:22;26.40;;;12.38;;
34098;SDS011;20374;49.474;10.944;2022-08-21T05:52:49;25.63;;;8.65;;
34098;SDS011;20374;49.474;10.944;2022-08-21T05:55:15;17.50;;;8.35;;
34098;SDS011;20374;49.474;10.944;2022-08-21T05:57:42;11.25;;;9.10;;
34098;SDS011;20374;49.474;10.944;2022-08-21T06:00:08;18.27;;;10.35;;
34098;SDS011;20374;49.474;10.944;2022-08-21T06:02:38;18.45;;;7.53;;
34098;SDS011;20374;49.474;10.944;2022-08-21T06:05:05;16.38;;;7.60;;
34098;SDS011;20374;49.474;10.944;2022-08-21T06:07:32;10.65;;;7.82;;
34098;SDS011;20374;49.474;10.944;2022-08-21T06:09:57;22.00;;;9.17;;
34098;SDS011;20374;49.474;10.944;2022-08-21T06:12:23;12.95;;;6.78;;
34098;SDS011;20374;49.474;10.944;2022-08-21T06:14:50;16.90;;;7.60;;
34098;SDS011;20374;49.474;10.944;2022-08-21T06:17:17;14.75;;;7.07;;
34098;SDS011;20374;49.474;10.944;2022-08-21T06:19:43;7.22;;;6.60;;
34098;SDS011;20374;49.474;10.944;2022-08-21T06:22:10;10.85;;;6.25;;
34098;SDS011;20374;49.474;10.944;2022-08-21T06:24:35;8.07;;;6.47;;
34098;SDS011;20374;49.474;10.944;2022-08-21T06:27:05;9.43;;;8.23;;
34098;SDS011;20374;49.474;10.944;2022-08-21T06:29:33;9.00;;;7.05;;
34098;SDS011;20374;49.474;10.944;2022-08-21T06:31:59;11.30;;;6.60;;
34098;SDS011;20374;49.474;10.944;2022-08-21T06:34:25;8.68;;;7.40;;
34098;SDS011;20374;49.474;10.944;2022-08-21T06:36:51;9.93;;;6.47;;
34098;SDS011;20374;49.474;10.944;2022-08-21T06:39:17;24.60;;;8.98;;
34098;SDS011;20374;49.474;10.944;2022-08-21T06:41:43;19.27;;;8.52;;
34098;SDS011;20374;49.474;10.944;2022-08-21T06:44:09;19.17;;;7.70;;
34098;SDS011;20374;49.474;10.944;2022-08-21T06:46:35;12.68;;;7.05;;
34098;SDS011;20374;49.474;10.944;2022-08-21T06:49:01;35.45;;;12.13;;
34098;SDS011;20374;49.474;10.944;2022-08-21T06:51:28;11.75;;;7.63;;
34098;SDS011;20374;49.474;10.944;2022-08-21T06:53:56;13.60;;;7.82;;
34098;SDS011;20374;49.474;10.944;2022-08-21T06:56:22;7.88;;;7.07;;
34098;SDS011;20374;49.474;10.944;2022-08-21T06:58:48;8.57;;;7.77;;
34098;SDS011;20374;49.474;10.944;2022-08-21T07:01:14;9.50;;;8.60;;
34098;SDS011;20374;49.474;10.944;2022-08-21T07:03:41;7.55;;;6.75;;
34098;SDS011;20374;49.474;10.944;2022-08-21T07:06:08;7.80;;;7.00;;
34098;SDS011;20374;49.474;10.944;2022-08-21T07:08:38;11.43;;;7.80;;
34098;SDS011;20374;49.474;10.944;2022-08-21T07:11:07;7.72;;;7.03;;
34098;SDS011;20374;49.474;10.944;2022-08-21T07:13:40;8.32;;;7.43;;
34098;SDS011;20374;49.474;10.944;2022-08-21T07:16:06;9.97;;;7.87;;
34098;SDS011;20374;49.474;10.944;2022-08-21T07:18:33;13.27;;;7.25;;
34098;SDS011;20374;49.474;10.944;2022-08-21T07:21:00;6.45;;;5.65;;
34098;SDS011;20374;49.474;10.944;2022-08-21T07:23:30;7.72;;;7.03;;
34098;SDS011;20374;49.474;10.944;2022-08-21T07:25:58;7.97;;;7.10;;
34098;SDS011;20374;49.474;10.944;2022-08-21T07:28:25;7.97;;;7.20;;
34098;SDS011;20374;49.474;10.944;2022-08-21T07:30:53;16.38;;;7.85;;
34098;SDS011;20374;49.474;10.944;2022-08-21T07:33:21;12.88;;;6.75;;
34098;SDS011;20374;49.474;10.944;2022-08-21T07:35:47;7.93;;;6.43;;
34098;SDS011;20374;49.474;10.944;2022-08-21T07:38:13;11.05;;;6.30;;
34098;SDS011;20374;49.474;10.944;2022-08-21T07:40:39;7.93;;;7.13;;
34098;SDS011;20374;49.474;10.944;2022-08-21T07:43:05;7.85;;;6.55;;
34098;SDS011;20374;49.474;10.944;2022-08-21T07:45:31;8.73;;;7.82;;
34098;SDS011;20374;49.474;10.944;2022-08-21T07:47:57;8.43;;;7.00;;
34098;SDS011;20374;49.474;10.944;2022-08-21T07:50:23;9.95;;;7.78;;
34098;SDS011;20374;49.474;10.944;2022-08-21T07:52:50;10.18;;;7.20;;
34098;SDS011;20374;49.474;10.944;2022-08-21T07:55:18;7.13;;;6.40;;
34098;SDS011;20374;49.474;10.944;2022-08-21T07:57:46;8.13;;;7.32;;
34098;SDS011;20374;49.474;10.944;2022-08-21T08:00:18;8.13;;;7.32;;
34098;SDS011;20374;49.474;10.944;2022-08-21T08:02:47;9.88;;;8.23;;
34098;SDS011;20374;49.474;10.944;2022-08-21T08:05:16;8.75;;;7.78;;
34098;SDS011;20374;49.474;10.944;2022-08-21T08:07:43;9.38;;;8.38;;
34098;SDS011;20374;49.474;10.944;2022-08-21T08:10:10;8.75;;;7.85;;
34098;SDS011;20374;49.474;10.944;2022-08-21T08:12:37;8.65;;;7.75;;
34098;SDS011;20374;49.474;10.944;2022-08-21T08:15:05;9.27;;;8.35;;
34098;SDS011;20374;49.474;10.944;2022-08-21T08:17:33;9.68;;;8.68;;
34098;SDS011;20374;49.474;10.944;2022-08-21T08:19:59;9.82;;;8.82;;
34098;SDS011;20374;49.474;10.944;2022-08-21T08:22:28;9.38;;;8.32;;
34098;SDS011;20374;49.474;10.944;2022-08-21T08:24:54;9.50;;;8.30;;
34098;SDS011;20374;49.474;10.944;2022-08-21T08:27:20;9.20;;;8.30;;
34098;SDS011;20374;49.474;10.944;2022-08-21T08:29:46;8.13;;;7.32;;
34098;SDS011;20374;49.474;10.944;2022-08-21T08:32:12;8.80;;;7.90;;
34098;SDS011;20374;49.474;10.944;2022-08-21T08:34:39;9.02;;;8.13;;
34098;SDS011;20374;49.474;10.944;2022-08-21T08:37:06;9.73;;;8.80;;
34098;SDS011;20374;49.474;10.944;2022-08-21T08:39:33;9.38;;;8.48;;
34098;SDS011;20374;49.474;10.944;2022-08-21T08:42:02;14.55;;;8.65;;
34098;SDS011;20374;49.474;10.944;2022-08-21T08:44:37;8.32;;;7.53;;
34098;SDS011;20374;49.474;10.944;2022-08-21T08:47:03;9.82;;;8.82;;
34098;SDS011;20374;49.474;10.944;2022-08-21T08:49:37;7.88;;;7.05;;
34098;SDS011;20374;49.474;10.944;2022-08-21T08:55:02;9.73;;;8.73;;
34098;SDS011;20374;49.474;10.944;2022-08-21T08:57:45;8.98;;;8.07;;
34098;SDS011;20374;49.474;10.944;2022-08-21T09:00:14;8.77;;;7.93;;
34098;SDS011;20374;49.474;10.944;2022-08-21T09:02:43;7.93;;;7.20;;
34098;SDS011;20374;49.474;10.944;2022-08-21T09:05:18;7.97;;;7.28;;
34098;SDS011;20374;49.474;10.944;2022-08-21T09:13:27;8.43;;;7.63;;
34098;SDS011;20374;49.474;10.944;2022-08-21T09:16:07;8.60;;;7.80;;
34098;SDS011;20374;49.474;10.944;2022-08-21T09:19:03;9.57;;;8.68;;
34098;SDS011;20374;49.474;10.944;2022-08-21T09:24:16;9.13;;;7.45;;
34098;SDS011;20374;49.474;10.944;2022-08-21T09:26:57;9.68;;;8.52;;
34098;SDS011;20374;49.474;10.944;2022-08-21T09:29:38;9.15;;;8.35;;
34098;SDS011;20374;49.474;10.944;2022-08-21T09:32:16;8.82;;;7.93;;
34098;SDS011;20374;49.474;10.944;2022-08-21T09:34:57;9.13;;;8.20;;
34098;SDS011;20374;49.474;10.944;2022-08-21T09:37:25;8.93;;;8.13;;
34098;SDS011;20374;49.474;10.944;2022-08-21T09:39:54;8.57;;;7.80;;
34098;SDS011;20374;49.474;10.944;2022-08-21T09:42:27;8.65;;;7.53;;
34098;SDS011;20374;49.474;10.944;2022-08-21T09:45:15;8.48;;;7.75;;
34098;SDS011;20374;49.474;10.944;2022-08-21T09:47:43;8.68;;;7.90;;
34098;SDS011;20374;49.474;10.944;2022-08-21T09:50:15;7.65;;;7.05;;
34098;SDS011;20374;49.474;10.944;2022-08-21T09:52:51;8.07;;;7.28;;
34098;SDS011;20374;49.474;10.944;2022-08-21T09:58:49;7.63;;;7.03;;
34098;SDS011;20374;49.474;10.944;2022-08-21T10:01:23;8.38;;;7.68;;
34098;SDS011;20374;49.474;10.944;2022-08-21T10:07:08;8.45;;;7.75;;
34098;SDS011;20374;49.474;10.944;2022-08-21T10:09:36;8.25;;;7.45;;
34098;SDS011;20374;49.474;10.944;2022-08-21T10:12:21;6.75;;;6.25;;
34098;SDS011;20374;49.474;10.944;2022-08-21T10:43:24;7.88;;;7.18;;
34098;SDS011;20374;49.474;10.944;2022-08-21T10:48:59;7.85;;;7.20;;
34098;SDS011;20374;49.474;10.944;2022-08-21T10:57:40;8.43;;;7.63;;
34098;SDS011;20374;49.474;10.944;2022-08-21T11:00:10;7.53;;;6.93;;
34098;SDS011;20374;49.474;10.944;2022-08-21T11:05:57;6.18;;;5.57;;
34098;SDS011;20374;49.474;10.944;2022-08-21T11:08:41;5.70;;;5.20;;
34098;SDS011;20374;49.474;10.944;2022-08-21T11:14:01;6.50;;;5.90;;
34098;SDS011;20374;49.474;10.944;2022-08-21T11:16:57;7.50;;;6.93;;
34098;SDS011;20374;49.474;10.944;2022-08-21T11:19:31;6.45;;;5.88;;
34098;SDS011;20374;49.474;10.944;2022-08-21T11:22:06;6.82;;;6.32;;
34098;SDS011;20374;49.474;10.944;2022-08-21T11:25:07;7.32;;;6.82;;
34098;SDS011;20374;49.474;10.944;2022-08-21T11:30:06;6.70;;;6.20;;
34098;SDS011;20374;49.474;10.944;2022-08-21T11:38:39;7.20;;;6.60;;
34098;SDS011;20374;49.474;10.944;2022-08-21T11:43:42;7.10;;;5.25;;
34098;SDS011;20374;49.474;10.944;2022-08-21T11:46:16;5.88;;;5.38;;
34098;SDS011;20374;49.474;10.944;2022-08-21T11:49:11;6.45;;;5.95;;
34098;SDS011;20374;49.474;10.944;2022-08-21T11:51:53;5.75;;;5.35;;
34098;SDS011;20374;49.474;10.944;2022-08-21T11:54:45;5.82;;;5.32;;
34098;SDS011;20374;49.474;10.944;2022-08-21T12:00:26;5.78;;;5.38;;
34098;SDS011;20374;49.474;10.944;2022-08-21T12:03:07;6.55;;;6.05;;
34098;SDS011;20374;49.474;10.944;2022-08-21T12:05:58;5.78;;;5.28;;
34098;SDS011;20374;49.474;10.944;2022-08-21T12:13:40;6.05;;;5.55;;
34098;SDS011;20374;49.474;10.944;2022-08-21T12:16:41;6.13;;;5.65;;
34098;SDS011;20374;49.474;10.944;2022-08-21T12:19:27;6.13;;;5.72;;
34098;SDS011;20374;49.474;10.944;2022-08-21T12:34:36;4.90;;;4.50;;
34098;SDS011;20374;49.474;10.944;2022-08-21T12:37:15;4.57;;;4.20;;
34098;SDS011;20374;49.474;10.944;2022-08-21T12:39:51;5.97;;;5.57;;
34098;SDS011;20374;49.474;10.944;2022-08-21T12:42:23;5.70;;;5.20;;
34098;SDS011;20374;49.474;10.944;2022-08-21T12:44:58;6.65;;;6.07;;
34098;SDS011;20374;49.474;10.944;2022-08-21T12:47:45;4.97;;;4.57;;
34098;SDS011;20374;49.474;10.944;2022-08-21T12:50:32;5.40;;;4.90;;
34098;SDS011;20374;49.474;10.944;2022-08-21T12:53:11;5.82;;;5.38;;
34098;SDS011;20374;49.474;10.944;2022-08-21T12:55:54;5.32;;;4.93;;
34098;SDS011;20374;49.474;10.944;2022-08-21T12:58:25;5.53;;;5.13;;
34098;SDS011;20374;49.474;10.944;2022-08-21T13:04:01;6.35;;;5.95;;
34098;SDS011;20374;49.474;10.944;2022-08-21T13:06:38;5.50;;;5.10;;
34098;SDS011;20374;49.474;10.944;2022-08-21T13:09:08;5.32;;;4.82;;
34098;SDS011;20374;49.474;10.944;2022-08-21T13:11:43;5.50;;;5.10;;
34098;SDS011;20374;49.474;10.944;2022-08-21T13:17:02;6.55;;;6.10;;
34098;SDS011;20374;49.474;10.944;2022-08-21T13:19:31;6.28;;;5.78;;
34098;SDS011;20374;49.474;10.944;2022-08-21T13:21:58;4.88;;;4.47;;
34098;SDS011;20374;49.474;10.944;2022-08-21T13:24:27;4.93;;;4.53;;
34098;SDS011;20374;49.474;10.944;2022-08-21T13:26:55;4.78;;;4.40;;
34098;SDS011;20374;49.474;10.944;2022-08-21T13:29:23;4.72;;;4.38;;
34098;SDS011;20374;49.474;10.944;2022-08-21T13:31:55;5.78;;;5.35;;
34098;SDS011;20374;49.474;10.944;2022-08-21T13:34:24;5.60;;;5.20;;
34098;SDS011;20374;49.474;10.944;2022-08-21T13:36:56;6.00;;;5.60;;
34098;SDS011;20374;49.474;10.944;2022-08-21T13:39:24;4.78;;;4.38;;
34098;SDS011;20374;49.474;10.944;2022-08-21T13:41:51;6.28;;;5.88;;
34098;SDS011;20374;49.474;10.944;2022-08-21T13:44:34;6.05;;;5.63;;
34098;SDS011;20374;49.474;10.944;2022-08-21T13:47:03;5.38;;;4.88;;
34098;SDS011;20374;49.474;10.944;2022-08-21T13:49:34;5.72;;;5.32;;
34098;SDS011;20374;49.474;10.944;2022-08-21T13:52:13;4.65;;;4.25;;
34098;SDS011;20374;49.474;10.944;2022-08-21T13:54:52;5.53;;;5.13;;
34098;SDS011;20374;49.474;10.944;2022-08-21T14:00:09;5.40;;;5.00;;
34098;SDS011;20374;49.474;10.944;2022-08-21T14:02:42;5.90;;;5.50;;
34098;SDS011;20374;49.474;10.944;2022-08-21T14:05:19;5.68;;;4.82;;
34098;SDS011;20374;49.474;10.944;2022-08-21T14:08:13;5.25;;;4.85;;
34098;SDS011;20374;49.474;10.944;2022-08-21T14:10:48;5.47;;;5.07;;
34098;SDS011;20374;49.474;10.944;2022-08-21T14:16:13;5.75;;;5.25;;
34098;SDS011;20374;49.474;10.944;2022-08-21T14:21:31;5.05;;;4.65;;
34098;SDS011;20374;49.474;10.944;2022-08-21T14:24:04;5.28;;;4.88;;
34098;SDS011;20374;49.474;10.944;2022-08-21T14:27:05;5.00;;;4.65;;
34098;SDS011;20374;49.474;10.944;2022-08-21T14:29:34;5.80;;;5.40;;
34098;SDS011;20374;49.474;10.944;2022-08-21T14:32:14;4.93;;;4.43;;
34098;SDS011;20374;49.474;10.944;2022-08-21T14:34:44;5.28;;;4.97;;
34098;SDS011;20374;49.474;10.944;2022-08-21T14:37:10;4.85;;;4.47;;
34098;SDS011;20374;49.474;10.944;2022-08-21T14:39:36;5.97;;;5.57;;
34098;SDS011;20374;49.474;10.944;2022-08-21T14:42:02;4.38;;;4.07;;
34098;SDS011;20374;49.474;10.944;2022-08-21T14:44:28;5.30;;;5.00;;
34098;SDS011;20374;49.474;10.944;2022-08-21T14:46:54;5.18;;;4.88;;
34098;SDS011;20374;49.474;10.944;2022-08-21T14:49:21;5.22;;;4.82;;
34098;SDS011;20374;49.474;10.944;2022-08-21T14:51:51;4.68;;;4.38;;
34098;SDS011;20374;49.474;10.944;2022-08-21T14:54:22;5.07;;;4.78;;
34098;SDS011;20374;49.474;10.944;2022-08-21T14:56:52;5.68;;;5.28;;
34098;SDS011;20374;49.474;10.944;2022-08-21T14:59:20;5.75;;;5.35;;
34098;SDS011;20374;49.474;10.944;2022-08-21T15:01:46;4.40;;;4.10;;
34098;SDS011;20374;49.474;10.944;2022-08-21T15:04:12;5.18;;;4.78;;
34098;SDS011;20374;49.474;10.944;2022-08-21T15:06:38;5.60;;;5.07;;
34098;SDS011;20374;49.474;10.944;2022-08-21T15:09:04;5.55;;;5.15;;
34098;SDS011;20374;49.474;10.944;2022-08-21T15:11:31;5.07;;;4.57;;
34098;SDS011;20374;49.474;10.944;2022-08-21T15:13:59;4.97;;;4.68;;
34098;SDS011;20374;49.474;10.944;2022-08-21T15:16:27;5.03;;;4.72;;
34098;SDS011;20374;49.474;10.944;2022-08-21T15:18:56;5.72;;;5.07;;
34098;SDS011;20374;49.474;10.944;2022-08-21T15:21:22;4.88;;;4.57;;
34098;SDS011;20374;49.474;10.944;2022-08-21T15:23:48;4.43;;;4.03;;
34098;SDS011;20374;49.474;10.944;2022-08-21T15:26:14;5.15;;;4.85;;
34098;SDS011;20374;49.474;10.944;2022-08-21T15:28:40;4.65;;;4.35;;
34098;SDS011;20374;49.474;10.944;2022-08-21T15:31:06;5.22;;;4.90;;
34098;SDS011;20374;49.474;10.944;2022-08-21T15:33:32;4.50;;;4.20;;
34098;SDS011;20374;49.474;10.944;2022-08-21T15:35:59;6.43;;;4.30;;
34098;SDS011;20374;49.474;10.944;2022-08-21T15:38:25;4.95;;;4.55;;
34098;SDS011;20374;49.474;10.944;2022-08-21T15:40:51;5.45;;;5.13;;
34098;SDS011;20374;49.474;10.944;2022-08-21T15:45:46;5.25;;;4.95;;
34098;SDS011;20374;49.474;10.944;2022-08-21T15:48:12;5.00;;;4.63;;
34098;SDS011;20374;49.474;10.944;2022-08-21T15:50:38;5.00;;;4.70;;
34098;SDS011;20374;49.474;10.944;2022-08-21T15:53:04;5.43;;;5.03;;
34098;SDS011;20374;49.474;10.944;2022-08-21T15:55:32;5.15;;;4.85;;
34098;SDS011;20374;49.474;10.944;2022-08-21T15:57:59;5.10;;;4.78;;
34098;SDS011;20374;49.474;10.944;2022-08-21T16:00:25;5.35;;;4.85;;
34098;SDS011;20374;49.474;10.944;2022-08-21T16:02:55;5.37;;;4.50;;
34098;SDS011;20374;49.474;10.944;2022-08-21T16:05:23;5.50;;;5.10;;
34098;SDS011;20374;49.474;10.944;2022-08-21T16:07:49;5.47;;;5.07;;
34098;SDS011;20374;49.474;10.944;2022-08-21T16:10:17;4.47;;;4.18;;
34098;SDS011;20374;49.474;10.944;2022-08-21T16:12:46;4.85;;;4.55;;
34098;SDS011;20374;49.474;10.944;2022-08-21T16:15:18;5.35;;;4.95;;
34098;SDS011;20374;49.474;10.944;2022-08-21T16:17:45;5.30;;;4.80;;
34098;SDS011;20374;49.474;10.944;2022-08-21T16:20:14;5.20;;;4.80;;
34098;SDS011;20374;49.474;10.944;2022-08-21T16:22:44;4.65;;;4.35;;
34098;SDS011;20374;49.474;10.944;2022-08-21T16:25:11;4.93;;;4.63;;
34098;SDS011;20374;49.474;10.944;2022-08-21T16:27:39;5.35;;;5.05;;
34098;SDS011;20374;49.474;10.944;2022-08-21T16:30:07;4.63;;;4.22;;
34098;SDS011;20374;49.474;10.944;2022-08-21T16:32:34;5.22;;;4.82;;
34098;SDS011;20374;49.474;10.944;2022-08-21T16:35:00;4.75;;;4.45;;
34098;SDS011;20374;49.474;10.944;2022-08-21T16:37:27;5.33;;;4.93;;
34098;SDS011;20374;49.474;10.944;2022-08-21T16:39:53;4.55;;;4.25;;